Time;durP1;ratioP1;P1;durP2;ratioP2;P2;SDS_P1;SDS_P2;PMS_P1;PMS_P2;Temp;Humidity;BMP_temperature;BMP_pressure;BME280_temperature;BME280_humidity;BME280_pressure;Samples;Min_cycle;Max_cycle;Signal;HPM_P1;HPM_P2
2021/07/08 00:01:34;;;;;;;9.33;8.50;;;18.60;1.00;;;;;;5053594;28;20535;-84
2021/07/08 00:04:01;;;;;;;9.40;8.70;;;18.60;1.00;;;;;;5051046;28;20452;-85
2021/07/08 00:06:28;;;;;;;9.67;8.87;;;18.50;1.00;;;;;;5053631;28;20451;-84
2021/07/08 00:08:54;;;;;;;11.30;10.30;;;18.50;1.00;;;;;;5052416;28;20452;-84
2021/07/08 00:11:21;;;;;;;10.83;10.03;;;18.50;1.00;;;;;;5055898;28;20442;-85
2021/07/08 00:13:49;;;;;;;10.07;9.27;;;18.40;1.00;;;;;;5056818;28;20540;-84
2021/07/08 00:16:16;;;;;;;10.23;9.03;;;18.40;1.00;;;;;;5054776;28;20920;-85
2021/07/08 00:18:43;;;;;;;10.33;9.53;;;18.40;1.00;;;;;;5049070;28;21015;-85
2021/07/08 00:21:10;;;;;;;10.77;9.87;;;18.40;1.00;;;;;;5052770;28;20436;-85
2021/07/08 00:23:36;;;;;;;10.37;9.57;;;18.40;1.00;;;;;;5053158;28;20479;-84
2021/07/08 00:26:04;;;;;;;11.50;10.60;;;18.30;1.00;;;;;;5052816;28;21084;-84
2021/07/08 00:28:31;;;;;;;10.60;9.70;;;18.30;1.00;;;;;;5052734;28;20428;-85
2021/07/08 00:30:59;;;;;;;10.93;10.03;;;18.30;1.00;;;;;;5050911;28;20445;-83
2021/07/08 00:33:26;;;;;;;10.40;9.60;;;18.20;1.00;;;;;;5049104;28;20451;-84
2021/07/08 00:35:52;;;;;;;10.93;10.13;;;18.20;1.00;;;;;;5051491;28;20447;-84
2021/07/08 00:38:19;;;;;;;12.03;10.77;;;18.20;1.00;;;;;;5054266;28;20480;-84
2021/07/08 00:40:46;;;;;;;11.07;10.23;;;18.10;1.00;;;;;;5054379;28;20452;-84
2021/07/08 00:43:13;;;;;;;11.40;10.23;;;18.20;1.00;;;;;;5055777;28;20479;-83
2021/07/08 00:45:40;;;;;;;10.60;9.70;;;18.10;1.00;;;;;;5058507;28;20567;-84
2021/07/08 00:48:09;;;;;;;10.60;9.60;;;18.10;1.00;;;;;;5068736;28;20504;-84
2021/07/08 00:50:42;;;;;;;11.80;10.80;;;18.10;1.00;;;;;;5067503;28;21006;-85
2021/07/08 00:53:09;;;;;;;10.87;10.07;;;18.00;1.00;;;;;;5057902;28;20447;-84
2021/07/08 00:55:37;;;;;;;12.03;11.03;;;18.00;1.00;;;;;;5055387;28;20422;-84
2021/07/08 00:58:07;;;;;;;11.80;10.80;;;18.00;1.00;;;;;;5058825;28;20456;-83
2021/07/08 01:00:36;;;;;;;11.63;10.83;;;18.00;1.00;;;;;;5056474;28;20566;-83
2021/07/08 01:03:07;;;;;;;12.73;11.63;;;17.90;1.00;;;;;;5061275;28;20548;-82
2021/07/08 01:05:36;;;;;;;11.60;10.70;;;18.00;1.00;;;;;;5062215;28;20528;-83
2021/07/08 01:08:04;;;;;;;13.23;12.13;;;18.00;1.00;;;;;;5080588;22;20458;-74
2021/07/08 01:10:31;;;;;;;11.10;10.30;;;18.00;1.00;;;;;;5062538;28;20738;-74
2021/07/08 01:12:59;;;;;;;12.00;11.10;;;17.90;1.00;;;;;;5061230;28;20438;-74
2021/07/08 01:15:26;;;;;;;10.93;9.93;;;17.90;1.00;;;;;;5048349;28;20482;-75
2021/07/08 01:17:52;;;;;;;12.30;11.20;;;17.80;1.00;;;;;;5063925;28;21077;-74
2021/07/08 01:20:21;;;;;;;11.50;10.60;;;17.80;1.00;;;;;;5074957;28;20470;-73
2021/07/08 01:22:49;;;;;;;12.13;11.20;;;17.80;1.00;;;;;;5067740;28;20458;-74
2021/07/08 01:25:18;;;;;;;12.00;10.90;;;17.80;1.00;;;;;;5068077;28;20558;-74
2021/07/08 01:27:45;;;;;;;11.90;10.90;;;17.70;1.00;;;;;;5067047;28;20507;-75
2021/07/08 01:30:13;;;;;;;12.00;11.10;;;17.70;1.00;;;;;;5071893;28;20460;-74
2021/07/08 01:32:40;;;;;;;12.10;11.10;;;17.70;1.00;;;;;;5071367;28;20479;-74
2021/07/08 01:35:10;;;;;;;11.67;10.77;;;17.70;1.00;;;;;;5065765;28;21506;-74
2021/07/08 01:37:37;;;;;;;12.60;11.60;;;17.60;1.00;;;;;;5068105;28;20480;-74
2021/07/08 01:40:06;;;;;;;12.50;11.43;;;17.50;1.00;;;;;;5065512;28;20445;-74
2021/07/08 01:42:33;;;;;;;11.87;10.50;;;17.50;1.00;;;;;;5068720;28;20454;-75
2021/07/08 01:45:00;;;;;;;12.13;11.23;;;17.50;1.00;;;;;;5065078;28;20443;-74
2021/07/08 01:47:27;;;;;;;12.30;11.30;;;17.50;1.00;;;;;;5070617;28;20540;-73
2021/07/08 01:49:53;;;;;;;12.10;11.10;;;17.50;1.00;;;;;;5066209;28;20453;-73
2021/07/08 01:52:20;;;;;;;11.93;11.03;;;17.50;1.00;;;;;;5067223;28;20443;-74
2021/07/08 01:54:47;;;;;;;12.47;11.33;;;17.40;1.00;;;;;;5067899;28;20452;-73
2021/07/08 01:57:15;;;;;;;11.80;10.97;;;17.40;1.00;;;;;;5069095;28;20457;-73
2021/07/08 01:59:41;;;;;;;11.50;10.70;;;17.40;1.00;;;;;;5070401;28;20445;-73
2021/07/08 02:02:09;;;;;;;12.57;11.57;;;17.40;1.00;;;;;;5072159;28;20450;-74
2021/07/08 02:04:35;;;;;;;11.70;10.80;;;17.40;1.00;;;;;;5070974;28;20451;-74
2021/07/08 02:07:02;;;;;;;12.03;11.03;;;17.40;1.00;;;;;;5065942;28;20465;-74
2021/07/08 02:09:30;;;;;;;11.40;10.40;;;17.40;1.00;;;;;;5070510;28;20453;-75
2021/07/08 02:11:57;;;;;;;12.07;11.00;;;17.40;1.00;;;;;;5048348;28;21188;-74
2021/07/08 02:14:26;;;;;;;12.50;11.53;;;17.40;1.00;;;;;;5073624;28;20454;-74
2021/07/08 02:16:53;;;;;;;11.37;10.47;;;17.40;1.00;;;;;;5062233;28;20454;-74
2021/07/08 02:19:19;;;;;;;11.77;10.87;;;17.40;1.00;;;;;;5071697;28;20439;-74
2021/07/08 02:21:46;;;;;;;12.50;11.50;;;17.40;1.00;;;;;;5065305;28;20472;-73
2021/07/08 02:24:13;;;;;;;12.63;11.53;;;17.30;1.00;;;;;;5062886;28;20459;-74
2021/07/08 02:26:40;;;;;;;12.13;11.13;;;17.30;1.00;;;;;;5066371;28;20917;-74
2021/07/08 02:29:07;;;;;;;12.57;11.63;;;17.30;1.00;;;;;;5072102;28;20536;-74
2021/07/08 02:31:35;;;;;;;12.00;10.90;;;17.30;1.00;;;;;;5070962;28;20469;-74
2021/07/08 02:34:02;;;;;;;12.47;11.60;;;17.30;1.00;;;;;;5071254;28;20964;-74
2021/07/08 02:36:28;;;;;;;12.40;11.30;;;17.30;1.00;;;;;;5069778;28;21046;-75
2021/07/08 02:38:55;;;;;;;12.50;11.47;;;17.30;1.00;;;;;;5067126;28;20470;-74
2021/07/08 02:41:22;;;;;;;12.27;11.07;;;17.30;1.00;;;;;;5070049;28;20442;-74
2021/07/08 02:43:50;;;;;;;11.90;11.00;;;17.30;1.00;;;;;;5067173;28;21177;-74
2021/07/08 02:46:17;;;;;;;12.47;11.40;;;17.40;1.00;;;;;;5075150;28;20926;-73
2021/07/08 02:48:44;;;;;;;11.90;10.73;;;17.40;1.00;;;;;;5065637;28;20454;-74
2021/07/08 02:51:11;;;;;;;12.10;11.10;;;17.40;1.00;;;;;;5066703;28;20453;-75
2021/07/08 02:53:38;;;;;;;12.37;11.37;;;17.40;1.00;;;;;;5064372;28;21185;-75
2021/07/08 02:56:05;;;;;;;12.77;11.67;;;17.50;1.00;;;;;;5069248;28;20578;-74
2021/07/08 02:58:31;;;;;;;12.80;11.70;;;17.50;1.00;;;;;;5066189;28;20439;-74
2021/07/08 03:00:58;;;;;;;12.90;11.90;;;17.50;1.00;;;;;;5069935;28;20450;-75
2021/07/08 03:03:24;;;;;;;13.77;12.50;;;17.50;1.00;;;;;;5066116;28;20558;-75
2021/07/08 03:05:52;;;;;;;12.30;11.40;;;17.50;1.00;;;;;;5071400;28;20453;-75
2021/07/08 03:08:19;;;;;;;14.77;13.57;;;17.50;1.00;;;;;;5068416;28;20453;-74
2021/07/08 03:10:46;;;;;;;12.17;11.27;;;17.50;1.00;;;;;;5066318;28;20473;-74
2021/07/08 03:13:13;;;;;;;12.87;11.67;;;17.50;1.00;;;;;;5071484;28;20513;-75
2021/07/08 03:15:39;;;;;;;12.73;11.73;;;17.50;1.00;;;;;;5066065;28;20457;-75
2021/07/08 03:18:06;;;;;;;12.17;11.27;;;17.40;1.00;;;;;;5076623;28;20439;-75
2021/07/08 03:20:34;;;;;;;13.17;11.97;;;17.50;1.00;;;;;;5067298;28;20462;-75
2021/07/08 03:23:03;;;;;;;12.10;11.20;;;17.40;1.00;;;;;;5070296;28;20501;-75
2021/07/08 03:25:30;;;;;;;12.40;11.50;;;17.40;1.00;;;;;;5044617;28;20483;-75
2021/07/08 03:27:58;;;;;;;14.60;13.40;;;17.40;1.00;;;;;;5065243;28;21326;-76
2021/07/08 03:30:26;;;;;;;13.97;12.73;;;17.40;1.00;;;;;;5064570;28;20911;-76
2021/07/08 03:32:53;;;;;;;13.17;12.17;;;17.40;1.00;;;;;;5050752;28;20461;-76
2021/07/08 03:35:20;;;;;;;14.53;13.33;;;17.40;1.00;;;;;;5066040;28;20454;-76
2021/07/08 03:37:47;;;;;;;14.83;13.63;;;17.40;1.00;;;;;;5066378;28;21003;-76
2021/07/08 03:40:16;;;;;;;14.40;13.20;;;17.40;1.00;;;;;;5072370;28;20513;-75
2021/07/08 03:42:44;;;;;;;13.27;12.20;;;17.40;1.00;;;;;;5061398;28;20490;-75
2021/07/08 03:45:12;;;;;;;12.47;11.43;;;17.50;1.00;;;;;;5069049;28;20469;-75
2021/07/08 03:47:40;;;;;;;13.67;12.60;;;17.40;1.00;;;;;;5064225;28;20462;-75
2021/07/08 03:50:09;;;;;;;13.77;12.43;;;17.50;1.00;;;;;;5073677;28;20897;-75
2021/07/08 03:52:38;;;;;;;13.47;12.47;;;17.50;1.00;;;;;;5065606;28;20436;-75
2021/07/08 03:55:06;;;;;;;14.80;13.10;;;17.50;1.00;;;;;;5068085;28;20528;-75
2021/07/08 03:57:34;;;;;;;13.10;12.10;;;17.40;1.00;;;;;;5066254;28;20461;-75
2021/07/08 04:00:01;;;;;;;13.87;12.70;;;17.40;1.00;;;;;;5065980;28;20458;-75
2021/07/08 04:02:28;;;;;;;15.10;13.60;;;17.40;1.00;;;;;;5064122;28;21000;-75
2021/07/08 04:04:54;;;;;;;14.87;13.77;;;17.50;1.00;;;;;;5069237;28;20569;-75
2021/07/08 04:07:21;;;;;;;13.13;12.13;;;17.60;1.00;;;;;;5065975;28;20447;-75
2021/07/08 04:09:47;;;;;;;14.17;12.97;;;17.70;1.00;;;;;;5068422;28;20456;-75
2021/07/08 04:12:14;;;;;;;14.17;12.97;;;17.70;1.00;;;;;;5070420;28;20410;-75
2021/07/08 04:14:42;;;;;;;13.97;12.80;;;17.70;1.00;;;;;;5068352;28;20479;-75
2021/07/08 04:17:09;;;;;;;14.57;13.27;;;17.70;1.00;;;;;;5070330;28;20438;-75
2021/07/08 04:19:35;;;;;;;13.23;12.13;;;17.60;1.00;;;;;;5064074;28;21346;-76
2021/07/08 04:22:02;;;;;;;20.00;18.07;;;17.60;1.00;;;;;;5075918;28;20435;-74
2021/07/08 04:24:29;;;;;;;15.23;13.83;;;17.60;1.00;;;;;;5062808;28;21059;-76
2021/07/08 04:26:56;;;;;;;14.13;12.73;;;17.70;1.00;;;;;;5063018;28;20529;-75
2021/07/08 04:29:23;;;;;;;12.87;11.97;;;17.70;1.00;;;;;;5067523;28;20496;-76
2021/07/08 04:31:51;;;;;;;13.00;11.83;;;17.70;1.00;;;;;;5066042;28;20454;-76
2021/07/08 04:34:17;;;;;;;12.70;11.70;;;17.70;1.00;;;;;;5062614;28;20489;-76
2021/07/08 04:36:44;;;;;;;21.27;19.47;;;17.60;1.00;;;;;;5073962;28;20442;-75
2021/07/08 04:39:11;;;;;;;13.23;12.13;;;17.60;1.00;;;;;;5065481;28;20445;-76
2021/07/08 04:41:37;;;;;;;13.80;12.70;;;17.60;1.00;;;;;;5066750;28;20463;-76
2021/07/08 04:44:04;;;;;;;13.30;12.20;;;17.70;1.00;;;;;;5068918;28;20458;-75
2021/07/08 04:46:32;;;;;;;13.77;12.47;;;17.70;1.00;;;;;;5064071;28;21633;-76
2021/07/08 04:49:00;;;;;;;13.63;12.33;;;17.70;1.00;;;;;;5065866;28;20451;-75
2021/07/08 04:51:27;;;;;;;13.97;12.80;;;17.70;1.00;;;;;;5046582;28;20556;-76
2021/07/08 04:53:54;;;;;;;14.37;13.10;;;17.80;1.00;;;;;;5067341;28;20466;-76
2021/07/08 04:56:21;;;;;;;13.87;12.37;;;17.80;1.00;;;;;;5042948;28;20407;-75
2021/07/08 04:58:47;;;;;;;13.63;12.50;;;17.80;1.00;;;;;;5066507;28;20469;-74
2021/07/08 05:01:14;;;;;;;13.90;12.70;;;17.90;1.00;;;;;;5065819;28;20429;-74
2021/07/08 05:03:41;;;;;;;13.43;12.13;;;17.90;1.00;;;;;;5077552;28;20654;-75
2021/07/08 05:06:09;;;;;;;13.60;12.20;;;18.00;1.00;;;;;;5064830;28;20470;-75
2021/07/08 05:08:35;;;;;;;14.87;13.43;;;18.10;1.00;;;;;;5073647;28;20458;-75
2021/07/08 05:11:02;;;;;;;12.77;11.67;;;18.10;1.00;;;;;;5065800;28;20534;-75
2021/07/08 05:13:29;;;;;;;14.87;13.70;;;18.10;1.00;;;;;;5066138;28;20545;-75
2021/07/08 05:15:55;;;;;;;13.03;11.93;;;18.30;1.00;;;;;;5068932;28;20454;-75
2021/07/08 05:18:22;;;;;;;12.80;11.70;;;18.40;1.00;;;;;;5076548;28;20985;-76
2021/07/08 05:20:50;;;;;;;13.43;12.40;;;18.60;1.00;;;;;;5069048;28;20458;-74
2021/07/08 05:23:23;;;;;;;13.13;12.03;;;18.70;1.00;;;;;;5074147;28;21147;-75
2021/07/08 05:25:50;;;;;;;11.33;10.50;;;18.90;1.00;;;;;;5071747;28;20443;-73
2021/07/08 05:28:17;;;;;;;11.67;10.67;;;19.00;1.00;;;;;;5065979;28;20467;-75
2021/07/08 05:30:43;;;;;;;12.63;11.33;;;19.20;1.00;;;;;;5069356;28;20523;-74
2021/07/08 05:33:10;;;;;;;11.53;10.60;;;19.30;1.00;;;;;;5066909;28;20436;-74
2021/07/08 05:35:37;;;;;;;11.80;10.10;;;19.40;1.00;;;;;;5069223;28;20447;-75
2021/07/08 05:38:05;;;;;;;10.13;9.43;;;19.50;1.00;;;;;;5066717;28;20444;-75
2021/07/08 05:40:33;;;;;;;10.77;9.77;;;19.60;1.00;;;;;;5070861;28;20496;-75
2021/07/08 05:43:00;;;;;;;11.10;10.00;;;19.60;1.00;;;;;;5048028;28;20473;-74
2021/07/08 05:45:27;;;;;;;10.90;10.00;;;19.70;1.00;;;;;;5079272;28;20448;-75
2021/07/08 05:47:53;;;;;;;10.70;9.67;;;19.70;1.00;;;;;;5069672;28;20566;-75
2021/07/08 05:50:20;;;;;;;9.03;8.27;;;19.80;1.00;;;;;;5056197;28;20444;-74
2021/07/08 05:52:48;;;;;;;10.23;9.43;;;19.90;1.00;;;;;;5073385;28;20509;-76
2021/07/08 05:55:14;;;;;;;9.60;8.80;;;19.90;1.00;;;;;;5069872;28;20459;-75
2021/07/08 05:57:47;;;;;;;9.60;8.80;;;19.90;1.00;;;;;;5041624;28;20460;-76
2021/07/08 06:00:15;;;;;;;9.60;8.83;;;20.00;1.00;;;;;;5065146;28;20456;-75
2021/07/08 06:02:42;;;;;;;18.30;14.77;;;20.10;1.00;;;;;;5070339;28;20884;-75
2021/07/08 06:05:09;;;;;;;10.33;9.47;;;20.10;1.00;;;;;;5067920;28;20458;-76
2021/07/08 06:07:36;;;;;;;11.17;10.10;;;20.20;1.00;;;;;;5080677;28;20481;-76
2021/07/08 06:10:06;;;;;;;10.33;9.30;;;20.30;1.00;;;;;;5062727;28;20466;-74
2021/07/08 06:12:33;;;;;;;9.30;8.40;;;20.30;1.00;;;;;;5074287;28;21231;-75
2021/07/08 06:15:01;;;;;;;29.80;18.90;;;20.20;1.00;;;;;;5065898;28;21796;-76
2021/07/08 06:17:28;;;;;;;9.33;8.43;;;20.20;1.00;;;;;;5067091;28;20451;-76
2021/07/08 06:19:55;;;;;;;10.73;9.70;;;20.10;1.00;;;;;;5065263;28;20424;-75
2021/07/08 06:22:21;;;;;;;9.10;8.40;;;20.00;1.00;;;;;;5070622;28;20475;-75
2021/07/08 06:24:48;;;;;;;12.70;9.03;;;20.10;1.00;;;;;;5066800;28;20444;-76
2021/07/08 06:27:15;;;;;;;10.17;9.27;;;20.20;1.00;;;;;;5067910;28;21195;-75
2021/07/08 06:29:42;;;;;;;10.30;9.33;;;20.30;1.00;;;;;;5070069;28;20461;-75
2021/07/08 06:32:10;;;;;;;10.53;9.73;;;20.30;1.00;;;;;;5075314;28;20460;-75
2021/07/08 06:34:36;;;;;;;9.30;8.40;;;20.30;1.00;;;;;;5072431;28;20805;-76
2021/07/08 06:37:03;;;;;;;9.90;9.10;;;20.30;1.00;;;;;;5063727;28;20531;-75
2021/07/08 06:39:30;;;;;;;9.67;8.77;;;20.30;1.00;;;;;;5070317;28;20447;-75
2021/07/08 06:41:56;;;;;;;11.93;10.80;;;20.20;1.00;;;;;;5067583;28;20458;-76
2021/07/08 06:44:23;;;;;;;11.17;10.17;;;20.30;1.00;;;;;;5069009;28;21177;-76
2021/07/08 06:46:54;;;;;;;11.70;10.80;;;20.30;1.00;;;;;;5064815;28;20967;-73
2021/07/08 06:49:22;;;;;;;9.80;9.10;;;20.30;1.00;;;;;;5068567;28;20903;-75
2021/07/08 06:51:49;;;;;;;9.23;8.50;;;20.30;1.00;;;;;;5067889;28;20518;-75
2021/07/08 06:54:16;;;;;;;11.20;9.80;;;20.30;1.00;;;;;;5062469;28;20837;-75
2021/07/08 06:56:43;;;;;;;9.20;8.50;;;20.30;1.00;;;;;;5067615;28;20444;-75
2021/07/08 06:59:09;;;;;;;10.33;8.80;;;20.30;1.00;;;;;;5064121;28;20483;-76
2021/07/08 07:01:36;;;;;;;8.93;8.23;;;20.20;1.00;;;;;;5067618;28;21001;-77
2021/07/08 07:04:02;;;;;;;9.67;8.87;;;20.20;1.00;;;;;;5067642;28;21082;-73
2021/07/08 07:06:31;;;;;;;10.50;9.50;;;20.20;1.00;;;;;;5069204;28;20447;-74
2021/07/08 07:08:58;;;;;;;8.80;8.10;;;20.20;1.00;;;;;;5062357;28;20481;-75
2021/07/08 07:11:24;;;;;;;8.93;8.13;;;20.20;1.00;;;;;;5071551;28;20465;-75
2021/07/08 07:13:51;;;;;;;10.10;9.10;;;20.30;1.00;;;;;;5064015;28;20440;-73
2021/07/08 07:16:18;;;;;;;9.63;8.60;;;20.30;1.00;;;;;;5066238;28;21084;-74
2021/07/08 07:18:45;;;;;;;8.93;8.03;;;20.30;1.00;;;;;;5065171;28;20467;-74
2021/07/08 07:21:12;;;;;;;8.90;8.20;;;20.30;1.00;;;;;;5050029;28;20462;-74
2021/07/08 07:23:42;;;;;;;9.07;7.63;;;20.30;1.00;;;;;;5068306;28;20545;-74
2021/07/08 07:26:08;;;;;;;13.77;12.57;;;20.40;1.00;;;;;;5073296;28;20461;-75
2021/07/08 07:28:36;;;;;;;9.47;8.57;;;20.40;1.00;;;;;;5069767;28;21088;-75
2021/07/08 07:31:03;;;;;;;9.37;8.57;;;20.50;1.00;;;;;;5064058;28;20518;-74
2021/07/08 07:33:30;;;;;;;9.30;8.33;;;20.50;1.00;;;;;;5072499;28;20444;-74
2021/07/08 07:35:57;;;;;;;9.73;8.80;;;20.50;1.00;;;;;;5068602;28;20429;-75
2021/07/08 07:38:24;;;;;;;10.97;8.17;;;20.50;1.00;;;;;;5063348;28;20460;-75
2021/07/08 07:40:52;;;;;;;10.03;7.70;;;20.50;1.00;;;;;;5071105;28;20476;-74
2021/07/08 07:43:19;;;;;;;9.70;8.87;;;20.50;1.00;;;;;;5070556;28;20444;-74
2021/07/08 07:45:47;;;;;;;15.13;8.80;;;20.50;1.00;;;;;;5062598;28;20493;-74
2021/07/08 07:48:13;;;;;;;12.70;7.80;;;20.50;1.00;;;;;;5045144;28;20460;-75
2021/07/08 07:50:40;;;;;;;8.40;7.80;;;20.50;1.00;;;;;;5066327;28;20471;-74
2021/07/08 07:53:07;;;;;;;14.40;12.93;;;20.60;1.00;;;;;;5070035;28;21364;-74
2021/07/08 07:55:34;;;;;;;10.37;8.20;;;20.60;1.00;;;;;;5076167;28;20443;-74
2021/07/08 07:58:03;;;;;;;8.68;7.90;;;20.60;1.00;;;;;;5064836;28;20903;-75
2021/07/08 08:00:30;;;;;;;8.77;8.00;;;20.70;1.00;;;;;;5064464;28;20234;-75
2021/07/08 08:02:58;;;;;;;9.07;8.17;;;20.70;1.00;;;;;;5063201;28;20532;-75
2021/07/08 08:05:36;;;;;;;7.00;6.40;;;20.80;1.00;;;;;;5063921;28;21166;-75
2021/07/08 08:10:49;;;;;;;8.13;7.30;;;20.80;1.00;;;;;;5067972;28;20923;-75
2021/07/08 08:13:18;;;;;;;8.50;7.33;;;20.80;1.00;;;;;;5060867;28;20450;-74
2021/07/08 08:15:45;;;;;;;8.30;6.90;;;20.80;1.00;;;;;;5073306;28;20459;-74
2021/07/08 08:18:12;;;;;;;7.13;6.53;;;20.90;1.00;;;;;;5065750;28;20955;-75
2021/07/08 08:20:39;;;;;;;8.23;7.43;;;21.00;1.00;;;;;;5063132;28;20604;-75
2021/07/08 08:23:06;;;;;;;7.63;6.93;;;21.10;1.00;;;;;;5063395;28;20453;-75
2021/07/08 08:25:32;;;;;;;13.43;8.33;;;21.20;1.00;;;;;;5062788;28;20476;-75
2021/07/08 08:27:59;;;;;;;6.97;6.27;;;21.20;1.00;;;;;;5065093;28;20485;-74
2021/07/08 08:30:28;;;;;;;10.93;7.57;;;21.20;1.00;;;;;;5066807;28;20456;-75
2021/07/08 08:32:55;;;;;;;8.10;7.13;;;21.20;1.00;;;;;;5075351;28;20451;-75
2021/07/08 08:35:22;;;;;;;8.03;7.20;;;21.20;1.00;;;;;;5067921;28;20990;-75
2021/07/08 08:37:49;;;;;;;7.63;6.90;;;21.20;1.00;;;;;;5075653;28;20900;-74
2021/07/08 08:40:16;;;;;;;7.47;6.87;;;21.20;1.00;;;;;;5068276;28;20459;-74
2021/07/08 08:42:43;;;;;;;7.37;6.87;;;21.30;1.00;;;;;;5050837;28;20441;-75
2021/07/08 08:45:12;;;;;;;6.90;6.30;;;21.30;1.00;;;;;;5067981;28;20445;-75
2021/07/08 08:48:13;;;;;;;6.43;5.93;;;21.30;1.00;;;;;;5065446;28;21021;-75
2021/07/08 08:50:41;;;;;;;6.77;6.10;;;21.30;1.00;;;;;;4985347;28;20464;-75
2021/07/08 08:53:11;;;;;;;6.70;6.10;;;21.40;1.00;;;;;;4982052;28;20811;-75
2021/07/08 08:55:39;;;;;;;8.70;7.07;;;21.40;1.00;;;;;;5027828;28;20548;-75
2021/07/08 08:58:06;;;;;;;8.13;7.20;;;21.40;1.00;;;;;;5066564;28;20487;-76
2021/07/08 09:00:38;;;;;;;6.60;6.00;;;21.50;1.00;;;;;;5070434;28;20446;-76
2021/07/08 09:03:06;;;;;;;7.30;6.70;;;21.60;1.00;;;;;;5066748;28;20676;-75
2021/07/08 09:05:36;;;;;;;7.57;6.87;;;21.70;1.00;;;;;;5072407;28;20461;-75
2021/07/08 09:08:11;;;;;;;8.53;7.80;;;21.70;1.00;;;;;;5067749;28;21045;-75
2021/07/08 09:10:38;;;;;;;8.30;7.10;;;21.90;1.00;;;;;;5065826;28;20488;-76
2021/07/08 09:13:06;;;;;;;8.67;7.67;;;22.10;1.00;;;;;;5066399;28;20920;-76
2021/07/08 09:15:33;;;;;;;7.20;6.40;;;22.10;1.00;;;;;;5069981;28;20458;-75
2021/07/08 09:17:59;;;;;;;5.73;5.23;;;22.30;1.00;;;;;;5071006;28;20462;-76
2021/07/08 09:20:27;;;;;;;8.10;5.97;;;22.40;1.00;;;;;;5068840;28;20460;-75
2021/07/08 09:23:08;;;;;;;17.33;15.00;;;22.50;1.00;;;;;;5076000;28;20656;-75
2021/07/08 09:25:34;;;;;;;7.30;6.57;;;22.70;1.00;;;;;;5067661;28;20598;-75
2021/07/08 09:28:17;;;;;;;7.50;5.40;;;22.90;1.00;;;;;;5069415;28;20463;-75
2021/07/08 09:30:45;;;;;;;5.90;5.23;;;23.20;1.00;;;;;;5065934;28;20444;-76
2021/07/08 09:33:31;;;;;;;4.77;4.37;;;23.40;1.00;;;;;;5075712;28;20441;-75
2021/07/08 09:36:10;;;;;;;13.63;12.30;;;23.70;1.00;;;;;;5068263;28;20455;-76
2021/07/08 09:38:40;;;;;;;5.47;4.97;;;24.10;1.00;;;;;;5067573;28;20522;-75
2021/07/08 09:41:09;;;;;;;5.73;4.70;;;24.30;1.00;;;;;;5068114;28;20479;-74
2021/07/08 09:43:39;;;;;;;5.43;4.30;;;24.50;1.00;;;;;;5068264;28;20443;-75
2021/07/08 09:46:06;;;;;;;5.83;5.27;;;24.50;1.00;;;;;;5074210;28;20455;-75
2021/07/08 09:48:33;;;;;;;6.70;6.20;;;24.40;1.00;;;;;;5064489;28;20467;-75
2021/07/08 09:51:00;;;;;;;5.57;5.07;;;24.30;1.00;;;;;;5074604;28;20463;-75
2021/07/08 09:53:29;;;;;;;5.90;4.83;;;24.20;1.00;;;;;;5067724;28;20435;-75
2021/07/08 09:56:05;;;;;;;5.10;4.60;;;24.10;1.00;;;;;;5071353;28;20440;-76
2021/07/08 09:58:34;;;;;;;4.40;4.10;;;24.10;1.00;;;;;;5067077;28;20448;-75
2021/07/08 10:01:12;;;;;;;4.20;3.90;;;24.20;1.00;;;;;;5068230;28;20445;-76
2021/07/08 10:03:40;;;;;;;4.13;3.77;;;24.20;1.00;;;;;;5067110;28;20445;-76
2021/07/08 10:06:08;;;;;;;4.40;4.00;;;24.20;1.00;;;;;;5071326;28;20454;-76
2021/07/08 10:08:36;;;;;;;5.87;5.37;;;24.10;1.00;;;;;;5070556;28;20462;-75
2021/07/08 10:11:04;;;;;;;4.40;4.00;;;24.40;1.00;;;;;;5074413;28;21402;-74
2021/07/08 10:13:32;;;;;;;3.60;3.30;;;24.60;1.00;;;;;;5069726;28;20975;-74
2021/07/08 10:16:01;;;;;;;5.40;3.80;;;24.40;1.00;;;;;;5066147;28;20454;-75
2021/07/08 10:18:32;;;;;;;6.13;4.80;;;24.40;1.00;;;;;;5095534;28;20398;-74
2021/07/08 10:20:59;;;;;;;4.80;4.40;;;24.30;1.00;;;;;;5095832;28;20425;-74
2021/07/08 10:23:26;;;;;;;5.83;4.77;;;24.10;1.00;;;;;;5109720;28;20406;-75
2021/07/08 10:25:53;;;;;;;5.13;4.33;;;23.90;1.00;;;;;;5102586;28;20468;-76
2021/07/08 10:28:21;;;;;;;4.80;4.50;;;23.80;1.00;;;;;;5110857;28;20416;-75
2021/07/08 10:30:51;;;;;;;4.70;4.40;;;23.60;1.00;;;;;;5099800;27;20454;-75
2021/07/08 10:33:20;;;;;;;4.70;4.33;;;23.40;1.00;;;;;;5088300;28;20428;-75
2021/07/08 10:35:50;;;;;;;4.77;4.40;;;23.20;1.00;;;;;;5097981;28;20616;-73
2021/07/08 10:38:30;;;;;;;5.70;5.20;;;23.10;1.00;;;;;;5091857;28;20404;-73
2021/07/08 10:40:59;;;;;;;5.60;4.63;;;23.20;1.00;;;;;;5108183;28;20445;-73
2021/07/08 10:43:36;;;;;;;5.37;4.97;;;23.10;1.00;;;;;;5102286;28;20400;-75
2021/07/08 10:46:04;;;;;;;4.80;4.40;;;23.00;1.00;;;;;;5092442;28;20479;-74
2021/07/08 10:48:41;;;;;;;5.53;5.03;;;23.00;1.00;;;;;;5092542;28;20965;-74
2021/07/08 10:51:09;;;;;;;6.10;4.93;;;22.90;1.00;;;;;;5091849;28;20653;-75
2021/07/08 10:53:40;;;;;;;6.20;5.13;;;22.80;1.00;;;;;;5092013;28;20434;-75
2021/07/08 10:56:08;;;;;;;6.67;6.07;;;22.80;1.00;;;;;;5091145;28;20486;-74
2021/07/08 10:58:42;;;;;;;5.30;4.80;;;22.80;1.00;;;;;;5094443;28;20415;-75
2021/07/08 11:01:11;;;;;;;5.87;5.43;;;22.90;1.00;;;;;;5095581;28;20439;-74
2021/07/08 11:03:43;;;;;;;5.57;5.10;;;23.00;1.00;;;;;;5094557;27;20436;-75
2021/07/08 11:06:24;;;;;;;5.70;5.20;;;23.10;1.00;;;;;;5092037;27;20479;-75
2021/07/08 11:08:59;;;;;;;6.00;5.50;;;23.10;1.00;;;;;;5102708;28;20403;-75
2021/07/08 11:12:01;;;;;;;7.53;6.43;;;23.10;1.00;;;;;;5093278;28;20429;-76
2021/07/08 11:14:31;;;;;;;5.53;5.13;;;23.30;1.00;;;;;;5063710;28;20439;-76
2021/07/08 11:17:00;;;;;;;6.53;5.27;;;23.30;1.00;;;;;;5072832;28;20452;-75
2021/07/08 11:19:39;;;;;;;7.20;6.60;;;23.30;1.00;;;;;;5073147;28;21745;-74
2021/07/08 11:22:09;;;;;;;8.70;5.60;;;23.20;1.00;;;;;;5077766;28;20459;-75
2021/07/08 11:24:46;;;;;;;6.00;5.40;;;23.10;1.00;;;;;;5070943;28;20433;-76
2021/07/08 11:27:15;;;;;;;6.27;5.67;;;23.10;1.00;;;;;;5071173;28;20445;-75
2021/07/08 11:29:45;;;;;;;6.13;5.67;;;23.10;1.00;;;;;;5065155;28;20555;-74
2021/07/08 11:32:23;;;;;;;11.77;6.00;;;23.20;1.00;;;;;;5068530;28;20457;-74
2021/07/08 11:34:52;;;;;;;6.40;5.80;;;23.40;1.00;;;;;;5068472;28;20432;-74
2021/07/08 11:37:22;;;;;;;6.70;6.10;;;23.60;1.00;;;;;;5072991;28;20502;-76
2021/07/08 11:39:54;;;;;;;6.80;5.03;;;23.70;1.00;;;;;;5065488;28;20455;-75
2021/07/08 11:42:22;;;;;;;5.53;5.17;;;23.70;1.00;;;;;;5065660;28;20460;-75
2021/07/08 11:44:52;;;;;;;5.83;5.37;;;23.70;1.00;;;;;;5071841;28;20453;-74
2021/07/08 11:47:19;;;;;;;6.10;5.50;;;23.60;1.00;;;;;;5069355;28;20457;-74
2021/07/08 11:49:48;;;;;;;5.97;5.57;;;23.60;1.00;;;;;;5067713;28;20470;-74
2021/07/08 11:52:19;;;;;;;5.47;4.93;;;23.60;1.00;;;;;;5064564;28;20453;-74
2021/07/08 11:54:57;;;;;;;6.00;5.37;;;23.50;1.00;;;;;;5069788;28;20537;-75
2021/07/08 11:57:23;;;;;;;8.57;5.67;;;23.50;1.00;;;;;;5065114;28;20578;-75
2021/07/08 11:59:52;;;;;;;6.33;5.83;;;23.40;1.00;;;;;;5062272;28;20453;-75
2021/07/08 12:02:35;;;;;;;4.93;4.40;;;23.40;1.00;;;;;;5066576;28;20465;-75
2021/07/08 12:05:16;;;;;;;5.20;4.80;;;23.30;1.00;;;;;;5064345;28;21688;-75
2021/07/08 12:07:47;;;;;;;10.10;5.13;;;23.20;1.00;;;;;;5065608;28;21025;-75
2021/07/08 12:10:13;;;;;;;5.20;4.80;;;23.20;1.00;;;;;;5067242;28;20614;-75
2021/07/08 12:12:50;;;;;;;5.80;4.47;;;23.10;1.00;;;;;;5070549;28;21380;-74
2021/07/08 12:15:18;;;;;;;5.97;5.37;;;23.10;1.00;;;;;;5065279;28;20428;-75
2021/07/08 12:17:44;;;;;;;6.73;6.00;;;23.10;1.00;;;;;;5054335;28;20411;-75
2021/07/08 12:20:12;;;;;;;5.47;4.33;;;23.00;1.00;;;;;;5070564;28;20448;-75
2021/07/08 12:23:01;;;;;;;6.17;5.47;;;22.80;1.00;;;;;;5069188;28;20452;-75
2021/07/08 12:25:28;;;;;;;6.23;5.27;;;22.70;1.00;;;;;;5070687;28;20553;-75
2021/07/08 12:27:56;;;;;;;5.97;4.87;;;22.70;1.00;;;;;;5069279;28;20450;-76
2021/07/08 12:30:26;;;;;;;5.57;5.00;;;22.70;1.00;;;;;;5071526;28;20424;-74
2021/07/08 12:33:07;;;;;;;6.30;5.17;;;22.80;1.00;;;;;;5066345;28;20569;-75
2021/07/08 12:35:39;;;;;;;5.70;5.20;;;22.70;1.00;;;;;;5067701;28;20462;-74
2021/07/08 12:38:06;;;;;;;6.83;6.13;;;22.70;1.00;;;;;;5062716;28;20542;-76
2021/07/08 12:40:32;;;;;;;5.60;5.20;;;22.80;1.00;;;;;;5065473;28;20454;-75
2021/07/08 12:43:06;;;;;;;6.13;5.63;;;22.90;1.00;;;;;;5064938;28;20531;-75
2021/07/08 12:45:35;;;;;;;5.83;5.20;;;23.00;1.00;;;;;;5072806;28;20499;-76
2021/07/08 12:48:03;;;;;;;5.30;4.73;;;23.20;1.00;;;;;;5067915;28;20450;-76
2021/07/08 12:50:36;;;;;;;5.83;5.33;;;23.30;1.00;;;;;;5063474;28;20479;-76
2021/07/08 12:53:06;;;;;;;6.93;6.30;;;23.30;1.00;;;;;;5063121;28;21082;-76
2021/07/08 12:55:37;;;;;;;6.03;5.00;;;23.30;1.00;;;;;;5066015;28;20506;-76
2021/07/08 12:58:04;;;;;;;6.80;6.20;;;23.30;1.00;;;;;;5065469;28;20494;-75